sensor_id;sensor_type;location;lat;lon;timestamp;P1;durP1;ratioP1;P2;durP2;ratioP2
6590;SDS011;3331;47.978;7.662;2022-09-03T07:23:19;3.63;;;2.43;;
6590;SDS011;3331;47.978;7.662;2022-09-03T07:25:51;2.93;;;2.20;;
6590;SDS011;3331;47.978;7.662;2022-09-03T07:28:17;4.00;;;2.20;;
6590;SDS011;3331;47.978;7.662;2022-09-03T07:30:43;2.20;;;2.10;;
6590;SDS011;3331;47.978;7.662;2022-09-03T07:33:10;3.10;;;2.30;;
6590;SDS011;3331;47.978;7.662;2022-09-03T07:35:36;2.60;;;2.40;;
6590;SDS011;3331;47.978;7.662;2022-09-03T07:38:03;1.70;;;1.60;;
6590;SDS011;3331;47.978;7.662;2022-09-03T07:40:31;2.30;;;2.20;;
6590;SDS011;3331;47.978;7.662;2022-09-03T07:42:58;2.43;;;1.87;;
6590;SDS011;3331;47.978;7.662;2022-09-03T07:45:27;2.77;;;1.90;;
6590;SDS011;3331;47.978;7.662;2022-09-03T07:47:53;3.10;;;2.07;;
6590;SDS011;3331;47.978;7.662;2022-09-03T07:50:22;1.97;;;1.80;;
6590;SDS011;3331;47.978;7.662;2022-09-03T07:52:48;2.30;;;2.10;;
6590;SDS011;3331;47.978;7.662;2022-09-03T07:55:15;1.80;;;1.60;;
6590;SDS011;3331;47.978;7.662;2022-09-03T07:57:42;2.40;;;2.20;;
6590;SDS011;3331;47.978;7.662;2022-09-03T08:00:09;3.17;;;2.00;;
6590;SDS011;3331;47.978;7.662;2022-09-03T08:02:36;2.30;;;2.10;;
6590;SDS011;3331;47.978;7.662;2022-09-03T08:05:03;2.20;;;2.00;;
6590;SDS011;3331;47.978;7.662;2022-09-03T08:07:30;6.00;;;2.37;;
6590;SDS011;3331;47.978;7.662;2022-09-03T08:09:57;1.90;;;1.80;;
6590;SDS011;3331;47.978;7.662;2022-09-03T08:12:25;2.93;;;1.90;;
6590;SDS011;3331;47.978;7.662;2022-09-03T08:14:53;2.20;;;2.10;;
6590;SDS011;3331;47.978;7.662;2022-09-03T08:17:20;4.37;;;2.10;;
6590;SDS011;3331;47.978;7.662;2022-09-03T08:19:46;1.60;;;1.50;;
6590;SDS011;3331;47.978;7.662;2022-09-03T08:22:13;1.90;;;1.80;;
6590;SDS011;3331;47.978;7.662;2022-09-03T08:24:39;2.00;;;1.80;;
6590;SDS011;3331;47.978;7.662;2022-09-03T08:27:07;2.97;;;2.07;;
6590;SDS011;3331;47.978;7.662;2022-09-03T08:29:33;2.90;;;1.80;;
6590;SDS011;3331;47.978;7.662;2022-09-03T08:32:02;2.10;;;1.90;;
6590;SDS011;3331;47.978;7.662;2022-09-03T08:34:29;2.10;;;1.90;;
6590;SDS011;3331;47.978;7.662;2022-09-03T08:36:55;2.03;;;1.90;;
6590;SDS011;3331;47.978;7.662;2022-09-03T08:39:25;2.37;;;2.00;;
6590;SDS011;3331;47.978;7.662;2022-09-03T08:41:59;2.03;;;1.90;;
6590;SDS011;3331;47.978;7.662;2022-09-03T08:44:27;2.03;;;1.90;;
6590;SDS011;3331;47.978;7.662;2022-09-03T08:46:54;1.83;;;1.73;;
6590;SDS011;3331;47.978;7.662;2022-09-03T08:49:25;3.67;;;1.60;;
6590;SDS011;3331;47.978;7.662;2022-09-03T08:51:53;1.80;;;1.70;;
6590;SDS011;3331;47.978;7.662;2022-09-03T08:54:20;1.87;;;1.77;;
6590;SDS011;3331;47.978;7.662;2022-09-03T08:56:49;2.00;;;1.80;;
6590;SDS011;3331;47.978;7.662;2022-09-03T08:59:16;2.10;;;2.00;;
6590;SDS011;3331;47.978;7.662;2022-09-03T09:01:46;3.70;;;1.60;;
6590;SDS011;3331;47.978;7.662;2022-09-03T09:04:20;1.83;;;1.60;;
6590;SDS011;3331;47.978;7.662;2022-09-03T09:06:50;1.83;;;1.73;;
6590;SDS011;3331;47.978;7.662;2022-09-03T09:09:22;1.73;;;1.63;;
6590;SDS011;3331;47.978;7.662;2022-09-03T09:11:57;1.97;;;1.83;;
6590;SDS011;3331;47.978;7.662;2022-09-03T09:14:25;3.43;;;1.90;;
6590;SDS011;3331;47.978;7.662;2022-09-03T09:16:56;2.30;;;1.93;;
6590;SDS011;3331;47.978;7.662;2022-09-03T09:19:33;2.87;;;1.50;;
6590;SDS011;3331;47.978;7.662;2022-09-03T09:22:06;1.50;;;1.40;;
6590;SDS011;3331;47.978;7.662;2022-09-03T09:24:35;2.00;;;1.67;;
6590;SDS011;3331;47.978;7.662;2022-09-03T09:27:03;1.50;;;1.40;;
6590;SDS011;3331;47.978;7.662;2022-09-03T09:29:30;1.40;;;1.30;;
6590;SDS011;3331;47.978;7.662;2022-09-03T09:31:57;2.50;;;1.50;;
6590;SDS011;3331;47.978;7.662;2022-09-03T09:34:24;4.90;;;1.33;;
6590;SDS011;3331;47.978;7.662;2022-09-03T09:36:52;4.57;;;1.80;;
6590;SDS011;3331;47.978;7.662;2022-09-03T09:39:21;4.70;;;1.70;;
6590;SDS011;3331;47.978;7.662;2022-09-03T09:41:57;1.57;;;1.47;;
6590;SDS011;3331;47.978;7.662;2022-09-03T09:44:24;5.13;;;2.23;;
6590;SDS011;3331;47.978;7.662;2022-09-03T09:46:50;6.87;;;2.03;;
6590;SDS011;3331;47.978;7.662;2022-09-03T09:49:29;3.90;;;2.00;;
6590;SDS011;3331;47.978;7.662;2022-09-03T09:52:00;13.27;;;2.20;;
6590;SDS011;3331;47.978;7.662;2022-09-03T09:54:28;4.97;;;1.97;;
6590;SDS011;3331;47.978;7.662;2022-09-03T09:56:57;5.27;;;1.70;;
6590;SDS011;3331;47.978;7.662;2022-09-03T09:59:24;6.27;;;1.50;;
6590;SDS011;3331;47.978;7.662;2022-09-03T10:02:01;2.47;;;1.50;;
6590;SDS011;3331;47.978;7.662;2022-09-03T10:04:29;3.73;;;1.70;;
6590;SDS011;3331;47.978;7.662;2022-09-03T10:06:57;3.30;;;1.30;;
6590;SDS011;3331;47.978;7.662;2022-09-03T10:09:26;4.40;;;1.20;;
6590;SDS011;3331;47.978;7.662;2022-09-03T10:11:56;1.97;;;1.10;;
6590;SDS011;3331;47.978;7.662;2022-09-03T10:14:28;6.17;;;1.60;;
6590;SDS011;3331;47.978;7.662;2022-09-03T10:16:59;4.10;;;1.00;;
6590;SDS011;3331;47.978;7.662;2022-09-03T10:19:30;1.50;;;1.07;;
6590;SDS011;3331;47.978;7.662;2022-09-03T10:22:02;2.10;;;1.00;;
6590;SDS011;3331;47.978;7.662;2022-09-03T10:24:33;4.00;;;1.10;;
6590;SDS011;3331;47.978;7.662;2022-09-03T10:27:05;4.10;;;1.17;;
6590;SDS011;3331;47.978;7.662;2022-09-03T10:29:32;2.03;;;1.10;;
6590;SDS011;3331;47.978;7.662;2022-09-03T10:32:02;1.10;;;0.80;;
6590;SDS011;3331;47.978;7.662;2022-09-03T10:34:31;3.43;;;1.20;;
6590;SDS011;3331;47.978;7.662;2022-09-03T10:37:01;1.33;;;1.23;;
6590;SDS011;3331;47.978;7.662;2022-09-03T10:39:37;1.30;;;1.17;;
6590;SDS011;3331;47.978;7.662;2022-09-03T10:42:08;1.27;;;1.20;;
6590;SDS011;3331;47.978;7.662;2022-09-03T10:44:45;1.50;;;1.40;;
6590;SDS011;3331;47.978;7.662;2022-09-03T10:47:18;1.30;;;1.03;;
6590;SDS011;3331;47.978;7.662;2022-09-03T10:49:48;2.10;;;1.30;;
6590;SDS011;3331;47.978;7.662;2022-09-03T10:52:16;1.47;;;1.10;;
6590;SDS011;3331;47.978;7.662;2022-09-03T10:54:51;2.33;;;1.10;;
6590;SDS011;3331;47.978;7.662;2022-09-03T10:57:23;2.50;;;0.87;;
6590;SDS011;3331;47.978;7.662;2022-09-03T10:59:58;2.13;;;1.00;;
6590;SDS011;3331;47.978;7.662;2022-09-03T11:02:33;1.23;;;1.13;;
6590;SDS011;3331;47.978;7.662;2022-09-03T11:05:05;2.57;;;1.00;;
6590;SDS011;3331;47.978;7.662;2022-09-03T11:07:35;0.90;;;0.90;;
6590;SDS011;3331;47.978;7.662;2022-09-03T11:10:05;1.00;;;0.90;;
6590;SDS011;3331;47.978;7.662;2022-09-03T11:12:37;1.53;;;1.10;;
6590;SDS011;3331;47.978;7.662;2022-09-03T11:15:07;0.70;;;0.70;;
6590;SDS011;3331;47.978;7.662;2022-09-03T11:17:36;2.00;;;1.20;;
6590;SDS011;3331;47.978;7.662;2022-09-03T11:20:05;1.27;;;1.17;;
6590;SDS011;3331;47.978;7.662;2022-09-03T11:22:36;1.20;;;1.00;;
6590;SDS011;3331;47.978;7.662;2022-09-03T11:25:03;4.60;;;1.10;;
6590;SDS011;3331;47.978;7.662;2022-09-03T11:30:36;2.30;;;1.00;;
6590;SDS011;3331;47.978;7.662;2022-09-03T11:33:05;1.03;;;1.00;;
6590;SDS011;3331;47.978;7.662;2022-09-03T11:35:36;0.80;;;0.80;;
6590;SDS011;3331;47.978;7.662;2022-09-03T11:38:07;1.73;;;1.20;;
6590;SDS011;3331;47.978;7.662;2022-09-03T11:40:55;0.70;;;0.70;;
6590;SDS011;3331;47.978;7.662;2022-09-03T11:43:24;1.03;;;1.03;;
6590;SDS011;3331;47.978;7.662;2022-09-03T11:46:03;1.23;;;0.90;;
6590;SDS011;3331;47.978;7.662;2022-09-03T11:48:32;0.80;;;0.80;;
6590;SDS011;3331;47.978;7.662;2022-09-03T11:50:59;1.57;;;1.27;;
6590;SDS011;3331;47.978;7.662;2022-09-03T11:53:31;0.77;;;0.77;;
6590;SDS011;3331;47.978;7.662;2022-09-03T11:55:59;1.27;;;0.90;;
6590;SDS011;3331;47.978;7.662;2022-09-03T11:58:27;0.60;;;0.60;;
6590;SDS011;3331;47.978;7.662;2022-09-03T12:00:54;0.80;;;0.80;;
6590;SDS011;3331;47.978;7.662;2022-09-03T12:03:38;1.70;;;0.70;;
6590;SDS011;3331;47.978;7.662;2022-09-03T12:12:12;0.80;;;0.80;;
6590;SDS011;3331;47.978;7.662;2022-09-03T12:14:43;0.77;;;0.70;;
6590;SDS011;3331;47.978;7.662;2022-09-03T12:17:15;1.03;;;0.73;;
6590;SDS011;3331;47.978;7.662;2022-09-03T12:19:46;0.80;;;0.80;;
6590;SDS011;3331;47.978;7.662;2022-09-03T12:22:16;0.57;;;0.57;;
6590;SDS011;3331;47.978;7.662;2022-09-03T12:24:43;1.13;;;0.93;;
6590;SDS011;3331;47.978;7.662;2022-09-03T12:27:18;1.43;;;1.07;;
6590;SDS011;3331;47.978;7.662;2022-09-03T12:29:52;1.17;;;1.00;;
6590;SDS011;3331;47.978;7.662;2022-09-03T12:32:24;1.00;;;0.90;;
6590;SDS011;3331;47.978;7.662;2022-09-03T12:34:52;0.97;;;0.90;;
6590;SDS011;3331;47.978;7.662;2022-09-03T12:37:19;1.10;;;0.87;;
6590;SDS011;3331;47.978;7.662;2022-09-03T12:39:51;1.00;;;0.90;;
6590;SDS011;3331;47.978;7.662;2022-09-03T12:42:19;2.80;;;0.73;;
6590;SDS011;3331;47.978;7.662;2022-09-03T12:44:47;1.20;;;0.70;;
6590;SDS011;3331;47.978;7.662;2022-09-03T12:47:14;0.90;;;0.90;;
6590;SDS011;3331;47.978;7.662;2022-09-03T12:49:42;1.07;;;0.97;;
6590;SDS011;3331;47.978;7.662;2022-09-03T12:52:14;1.10;;;1.10;;
6590;SDS011;3331;47.978;7.662;2022-09-03T12:54:43;2.13;;;1.27;;
6590;SDS011;3331;47.978;7.662;2022-09-03T12:57:12;1.10;;;1.10;;
6590;SDS011;3331;47.978;7.662;2022-09-03T12:59:41;1.40;;;1.20;;
6590;SDS011;3331;47.978;7.662;2022-09-03T13:02:11;1.00;;;1.00;;
6590;SDS011;3331;47.978;7.662;2022-09-03T13:04:39;0.93;;;0.90;;
6590;SDS011;3331;47.978;7.662;2022-09-03T13:07:06;0.90;;;0.90;;
6590;SDS011;3331;47.978;7.662;2022-09-03T13:09:38;1.00;;;1.00;;
6590;SDS011;3331;47.978;7.662;2022-09-03T13:12:05;1.00;;;1.00;;
6590;SDS011;3331;47.978;7.662;2022-09-03T13:14:40;1.30;;;1.20;;
6590;SDS011;3331;47.978;7.662;2022-09-03T13:17:21;1.50;;;1.03;;
6590;SDS011;3331;47.978;7.662;2022-09-03T13:19:58;1.00;;;1.00;;
6590;SDS011;3331;47.978;7.662;2022-09-03T13:22:30;0.83;;;0.83;;
6590;SDS011;3331;47.978;7.662;2022-09-03T13:25:06;1.10;;;1.03;;
6590;SDS011;3331;47.978;7.662;2022-09-03T13:27:36;1.07;;;1.00;;
6590;SDS011;3331;47.978;7.662;2022-09-03T13:30:06;0.90;;;0.90;;
6590;SDS011;3331;47.978;7.662;2022-09-03T13:32:38;1.17;;;1.07;;
6590;SDS011;3331;47.978;7.662;2022-09-03T13:35:08;0.90;;;0.90;;
6590;SDS011;3331;47.978;7.662;2022-09-03T13:37:37;2.20;;;0.93;;
6590;SDS011;3331;47.978;7.662;2022-09-03T13:40:10;1.37;;;1.13;;
6590;SDS011;3331;47.978;7.662;2022-09-03T13:42:40;0.97;;;0.97;;
6590;SDS011;3331;47.978;7.662;2022-09-03T13:45:22;1.03;;;1.00;;
6590;SDS011;3331;47.978;7.662;2022-09-03T13:47:51;1.30;;;1.20;;
6590;SDS011;3331;47.978;7.662;2022-09-03T13:50:40;1.50;;;1.40;;
6590;SDS011;3331;47.978;7.662;2022-09-03T13:53:08;1.33;;;1.27;;
6590;SDS011;3331;47.978;7.662;2022-09-03T13:55:43;1.43;;;1.13;;
6590;SDS011;3331;47.978;7.662;2022-09-03T13:58:17;1.20;;;1.10;;
6590;SDS011;3331;47.978;7.662;2022-09-03T14:00:44;1.93;;;1.20;;
6590;SDS011;3331;47.978;7.662;2022-09-03T14:03:16;5.53;;;3.73;;
6590;SDS011;3331;47.978;7.662;2022-09-03T14:06:01;2.53;;;2.13;;
6590;SDS011;3331;47.978;7.662;2022-09-03T14:08:31;1.13;;;1.10;;
6590;SDS011;3331;47.978;7.662;2022-09-03T14:11:02;1.20;;;1.20;;
6590;SDS011;3331;47.978;7.662;2022-09-03T14:13:55;5.63;;;1.60;;
6590;SDS011;3331;47.978;7.662;2022-09-03T14:16:25;1.50;;;1.40;;
6590;SDS011;3331;47.978;7.662;2022-09-03T14:18:55;3.97;;;1.17;;
6590;SDS011;3331;47.978;7.662;2022-09-03T14:21:24;1.63;;;1.40;;
6590;SDS011;3331;47.978;7.662;2022-09-03T14:23:54;1.37;;;1.27;;
6590;SDS011;3331;47.978;7.662;2022-09-03T14:26:27;1.40;;;1.23;;
6590;SDS011;3331;47.978;7.662;2022-09-03T14:28:58;2.93;;;1.57;;
6590;SDS011;3331;47.978;7.662;2022-09-03T14:31:28;3.13;;;1.63;;
6590;SDS011;3331;47.978;7.662;2022-09-03T14:34:01;1.50;;;1.40;;
6590;SDS011;3331;47.978;7.662;2022-09-03T14:36:30;1.50;;;1.40;;
6590;SDS011;3331;47.978;7.662;2022-09-03T14:42:10;1.83;;;1.73;;
6590;SDS011;3331;47.978;7.662;2022-09-03T14:44:44;1.33;;;1.23;;
6590;SDS011;3331;47.978;7.662;2022-09-03T14:47:19;1.47;;;1.37;;
6590;SDS011;3331;47.978;7.662;2022-09-03T14:49:56;1.67;;;1.50;;
6590;SDS011;3331;47.978;7.662;2022-09-03T14:52:29;1.60;;;1.50;;
6590;SDS011;3331;47.978;7.662;2022-09-03T14:55:12;1.80;;;1.50;;
6590;SDS011;3331;47.978;7.662;2022-09-03T14:57:52;1.80;;;1.70;;
6590;SDS011;3331;47.978;7.662;2022-09-03T15:00:35;2.13;;;1.70;;
6590;SDS011;3331;47.978;7.662;2022-09-03T15:03:22;2.93;;;1.83;;
6590;SDS011;3331;47.978;7.662;2022-09-03T15:06:03;1.63;;;1.33;;
6590;SDS011;3331;47.978;7.662;2022-09-03T15:08:38;2.60;;;1.63;;
6590;SDS011;3331;47.978;7.662;2022-09-03T15:11:10;1.20;;;1.20;;
6590;SDS011;3331;47.978;7.662;2022-09-03T15:13:44;3.43;;;1.50;;
6590;SDS011;3331;47.978;7.662;2022-09-03T15:16:16;1.60;;;1.50;;
6590;SDS011;3331;47.978;7.662;2022-09-03T15:18:48;2.33;;;1.90;;
6590;SDS011;3331;47.978;7.662;2022-09-03T15:21:18;1.30;;;1.30;;
6590;SDS011;3331;47.978;7.662;2022-09-03T15:23:51;1.80;;;1.60;;
6590;SDS011;3331;47.978;7.662;2022-09-03T15:26:24;2.47;;;1.60;;
6590;SDS011;3331;47.978;7.662;2022-09-03T15:28:58;2.83;;;1.70;;
6590;SDS011;3331;47.978;7.662;2022-09-03T15:31:31;1.57;;;1.47;;
6590;SDS011;3331;47.978;7.662;2022-09-03T15:34:11;1.90;;;1.80;;
6590;SDS011;3331;47.978;7.662;2022-09-03T15:36:42;1.87;;;1.30;;
6590;SDS011;3331;47.978;7.662;2022-09-03T15:39:12;2.37;;;1.43;;
6590;SDS011;3331;47.978;7.662;2022-09-03T15:41:43;4.50;;;1.53;;
6590;SDS011;3331;47.978;7.662;2022-09-03T15:44:13;1.60;;;1.50;;
6590;SDS011;3331;47.978;7.662;2022-09-03T15:46:48;2.77;;;1.50;;
6590;SDS011;3331;47.978;7.662;2022-09-03T15:49:35;1.50;;;1.40;;
6590;SDS011;3331;47.978;7.662;2022-09-03T15:52:09;1.60;;;1.50;;
6590;SDS011;3331;47.978;7.662;2022-09-03T15:54:45;1.23;;;1.23;;
6590;SDS011;3331;47.978;7.662;2022-09-03T15:57:16;1.70;;;1.60;;
6590;SDS011;3331;47.978;7.662;2022-09-03T15:59:48;1.80;;;1.60;;
6590;SDS011;3331;47.978;7.662;2022-09-03T16:02:17;1.47;;;1.43;;
6590;SDS011;3331;47.978;7.662;2022-09-03T16:04:51;1.63;;;1.47;;
6590;SDS011;3331;47.978;7.662;2022-09-03T16:07:22;1.50;;;1.40;;
6590;SDS011;3331;47.978;7.662;2022-09-03T16:09:53;1.53;;;1.43;;
6590;SDS011;3331;47.978;7.662;2022-09-03T16:12:26;1.70;;;1.60;;
6590;SDS011;3331;47.978;7.662;2022-09-03T16:14:59;1.77;;;1.47;;
6590;SDS011;3331;47.978;7.662;2022-09-03T16:17:29;2.03;;;1.50;;
6590;SDS011;3331;47.978;7.662;2022-09-03T16:19:58;1.60;;;1.50;;
6590;SDS011;3331;47.978;7.662;2022-09-03T16:22:27;1.57;;;1.47;;
6590;SDS011;3331;47.978;7.662;2022-09-03T16:24:55;1.73;;;1.63;;
6590;SDS011;3331;47.978;7.662;2022-09-03T16:27:25;1.30;;;1.20;;
6590;SDS011;3331;47.978;7.662;2022-09-03T16:29:55;1.80;;;1.70;;
6590;SDS011;3331;47.978;7.662;2022-09-03T16:32:26;2.00;;;1.67;;
6590;SDS011;3331;47.978;7.662;2022-09-03T16:35:00;1.40;;;1.30;;
6590;SDS011;3331;47.978;7.662;2022-09-03T16:37:31;2.17;;;1.60;;
6590;SDS011;3331;47.978;7.662;2022-09-03T16:40:02;2.10;;;1.60;;
6590;SDS011;3331;47.978;7.662;2022-09-03T16:42:36;1.87;;;1.77;;
6590;SDS011;3331;47.978;7.662;2022-09-03T16:45:09;1.40;;;1.30;;
6590;SDS011;3331;47.978;7.662;2022-09-03T16:47:46;2.00;;;1.50;;
6590;SDS011;3331;47.978;7.662;2022-09-03T16:50:22;1.87;;;1.70;;
6590;SDS011;3331;47.978;7.662;2022-09-03T16:52:57;3.10;;;1.90;;
6590;SDS011;3331;47.978;7.662;2022-09-03T16:55:27;1.40;;;1.30;;
6590;SDS011;3331;47.978;7.662;2022-09-03T16:57:59;2.67;;;1.40;;
6590;SDS011;3331;47.978;7.662;2022-09-03T17:00:36;1.30;;;1.20;;
6590;SDS011;3331;47.978;7.662;2022-09-03T17:03:20;1.53;;;1.33;;
6590;SDS011;3331;47.978;7.662;2022-09-03T17:06:07;1.43;;;1.33;;
6590;SDS011;3331;47.978;7.662;2022-09-03T17:08:37;2.37;;;1.37;;
6590;SDS011;3331;47.978;7.662;2022-09-03T17:11:11;1.37;;;1.13;;
6590;SDS011;3331;47.978;7.662;2022-09-03T17:13:49;1.40;;;1.30;;
6590;SDS011;3331;47.978;7.662;2022-09-03T17:16:21;1.70;;;1.43;;
6590;SDS011;3331;47.978;7.662;2022-09-03T17:18:52;1.50;;;1.33;;
6590;SDS011;3331;47.978;7.662;2022-09-03T17:21:25;1.63;;;1.50;;
6590;SDS011;3331;47.978;7.662;2022-09-03T17:24:01;2.67;;;1.60;;
6590;SDS011;3331;47.978;7.662;2022-09-03T17:26:33;1.47;;;1.33;;
6590;SDS011;3331;47.978;7.662;2022-09-03T17:29:02;2.10;;;1.30;;
6590;SDS011;3331;47.978;7.662;2022-09-03T17:31:35;3.70;;;1.47;;
6590;SDS011;3331;47.978;7.662;2022-09-03T17:34:08;1.60;;;1.50;;
6590;SDS011;3331;47.978;7.662;2022-09-03T17:36:38;3.23;;;1.70;;
6590;SDS011;3331;47.978;7.662;2022-09-03T17:39:22;2.07;;;1.63;;
6590;SDS011;3331;47.978;7.662;2022-09-03T17:41:51;1.40;;;1.30;;
6590;SDS011;3331;47.978;7.662;2022-09-03T17:44:24;3.47;;;1.67;;
6590;SDS011;3331;47.978;7.662;2022-09-03T17:46:59;1.90;;;1.70;;
6590;SDS011;3331;47.978;7.662;2022-09-03T17:49:30;2.40;;;1.43;;
6590;SDS011;3331;47.978;7.662;2022-09-03T17:51:58;1.47;;;1.37;;
6590;SDS011;3331;47.978;7.662;2022-09-03T17:54:31;3.60;;;1.27;;
6590;SDS011;3331;47.978;7.662;2022-09-03T17:56:59;2.10;;;1.90;;
6590;SDS011;3331;47.978;7.662;2022-09-03T17:59:31;3.33;;;1.90;;
6590;SDS011;3331;47.978;7.662;2022-09-03T18:02:00;4.77;;;1.70;;
6590;SDS011;3331;47.978;7.662;2022-09-03T18:04:33;1.47;;;1.37;;
6590;SDS011;3331;47.978;7.662;2022-09-03T18:07:05;1.60;;;1.50;;
6590;SDS011;3331;47.978;7.662;2022-09-03T18:09:34;1.47;;;1.37;;
6590;SDS011;3331;47.978;7.662;2022-09-03T18:12:05;3.37;;;1.43;;
6590;SDS011;3331;47.978;7.662;2022-09-03T18:14:34;2.03;;;1.70;;
6590;SDS011;3331;47.978;7.662;2022-09-03T18:17:03;1.60;;;1.50;;
6590;SDS011;3331;47.978;7.662;2022-09-03T18:19:35;1.90;;;1.80;;
6590;SDS011;3331;47.978;7.662;2022-09-03T18:22:20;1.70;;;1.60;;
6590;SDS011;3331;47.978;7.662;2022-09-03T18:25:05;1.97;;;1.63;;
6590;SDS011;3331;47.978;7.662;2022-09-03T18:27:53;1.40;;;1.30;;
6590;SDS011;3331;47.978;7.662;2022-09-03T18:30:39;1.87;;;1.67;;
6590;SDS011;3331;47.978;7.662;2022-09-03T18:33:23;2.77;;;1.87;;
6590;SDS011;3331;47.978;7.662;2022-09-03T18:36:09;3.00;;;1.97;;
6590;SDS011;3331;47.978;7.662;2022-09-03T18:38:54;2.10;;;1.90;;
6590;SDS011;3331;47.978;7.662;2022-09-03T18:41:45;3.07;;;1.57;;
6590;SDS011;3331;47.978;7.662;2022-09-03T18:44:34;2.53;;;1.77;;
6590;SDS011;3331;47.978;7.662;2022-09-03T18:47:24;3.23;;;2.23;;
6590;SDS011;3331;47.978;7.662;2022-09-03T18:50:11;3.87;;;1.87;;
6590;SDS011;3331;47.978;7.662;2022-09-03T18:53:02;2.90;;;1.70;;
6590;SDS011;3331;47.978;7.662;2022-09-03T18:55:55;5.00;;;2.13;;
6590;SDS011;3331;47.978;7.662;2022-09-03T18:58:41;5.20;;;2.03;;
6590;SDS011;3331;47.978;7.662;2022-09-03T19:01:30;3.53;;;1.97;;
6590;SDS011;3331;47.978;7.662;2022-09-03T19:04:18;2.10;;;2.00;;
6590;SDS011;3331;47.978;7.662;2022-09-03T19:07:03;2.97;;;1.93;;
6590;SDS011;3331;47.978;7.662;2022-09-03T19:09:53;3.03;;;2.23;;
6590;SDS011;3331;47.978;7.662;2022-09-03T19:13:04;3.27;;;1.93;;
6590;SDS011;3331;47.978;7.662;2022-09-03T19:15:51;6.40;;;1.93;;
6590;SDS011;3331;47.978;7.662;2022-09-03T19:18:52;3.10;;;1.83;;
6590;SDS011;3331;47.978;7.662;2022-09-03T19:21:42;3.40;;;2.03;;
6590;SDS011;3331;47.978;7.662;2022-09-03T19:24:29;2.07;;;1.93;;
6590;SDS011;3331;47.978;7.662;2022-09-03T19:27:17;3.57;;;1.87;;
6590;SDS011;3331;47.978;7.662;2022-09-03T19:30:04;2.33;;;1.87;;
6590;SDS011;3331;47.978;7.662;2022-09-03T19:32:53;1.83;;;1.73;;
6590;SDS011;3331;47.978;7.662;2022-09-03T19:35:42;2.87;;;2.00;;
6590;SDS011;3331;47.978;7.662;2022-09-03T19:38:34;5.50;;;2.10;;
6590;SDS011;3331;47.978;7.662;2022-09-03T19:41:23;2.70;;;1.80;;
6590;SDS011;3331;47.978;7.662;2022-09-03T19:44:15;1.77;;;1.67;;
6590;SDS011;3331;47.978;7.662;2022-09-03T19:47:03;3.27;;;2.07;;
6590;SDS011;3331;47.978;7.662;2022-09-03T19:49:50;2.87;;;1.80;;
6590;SDS011;3331;47.978;7.662;2022-09-03T19:52:39;1.90;;;1.80;;
6590;SDS011;3331;47.978;7.662;2022-09-03T19:55:26;1.97;;;1.83;;
6590;SDS011;3331;47.978;7.662;2022-09-03T19:58:12;2.67;;;2.00;;
6590;SDS011;3331;47.978;7.662;2022-09-03T20:01:01;2.13;;;1.93;;
6590;SDS011;3331;47.978;7.662;2022-09-03T20:03:45;2.30;;;1.70;;
6590;SDS011;3331;47.978;7.662;2022-09-03T20:06:29;21.80;;;2.53;;
6590;SDS011;3331;47.978;7.662;2022-09-03T20:09:14;1.93;;;1.80;;
6590;SDS011;3331;47.978;7.662;2022-09-03T20:12:01;2.30;;;1.50;;
6590;SDS011;3331;47.978;7.662;2022-09-03T20:14:29;4.50;;;1.70;;
6590;SDS011;3331;47.978;7.662;2022-09-03T20:17:01;2.80;;;1.87;;
6590;SDS011;3331;47.978;7.662;2022-09-03T20:19:32;2.33;;;2.03;;
6590;SDS011;3331;47.978;7.662;2022-09-03T20:22:02;3.03;;;1.83;;
6590;SDS011;3331;47.978;7.662;2022-09-03T20:24:35;1.90;;;1.80;;
6590;SDS011;3331;47.978;7.662;2022-09-03T20:27:08;4.23;;;2.13;;
6590;SDS011;3331;47.978;7.662;2022-09-03T20:29:41;2.57;;;1.90;;
6590;SDS011;3331;47.978;7.662;2022-09-03T20:32:15;6.40;;;1.87;;
6590;SDS011;3331;47.978;7.662;2022-09-03T20:34:44;2.77;;;2.00;;
6590;SDS011;3331;47.978;7.662;2022-09-03T20:37:17;2.93;;;2.03;;
6590;SDS011;3331;47.978;7.662;2022-09-03T20:39:51;2.90;;;2.20;;
6590;SDS011;3331;47.978;7.662;2022-09-03T20:42:28;6.33;;;2.13;;
6590;SDS011;3331;47.978;7.662;2022-09-03T20:44:58;2.33;;;2.13;;
6590;SDS011;3331;47.978;7.662;2022-09-03T20:47:44;6.20;;;2.33;;
6590;SDS011;3331;47.978;7.662;2022-09-03T20:50:22;3.00;;;2.23;;
6590;SDS011;3331;47.978;7.662;2022-09-03T20:52:52;4.03;;;1.93;;
6590;SDS011;3331;47.978;7.662;2022-09-03T20:55:25;4.63;;;2.33;;
6590;SDS011;3331;47.978;7.662;2022-09-03T20:57:53;4.37;;;1.90;;
6590;SDS011;3331;47.978;7.662;2022-09-03T21:00:24;5.17;;;1.80;;
6590;SDS011;3331;47.978;7.662;2022-09-03T21:02:58;2.20;;;2.00;;
6590;SDS011;3331;47.978;7.662;2022-09-03T21:05:28;3.97;;;2.20;;
6590;SDS011;3331;47.978;7.662;2022-09-03T21:07:59;2.57;;;1.93;;
6590;SDS011;3331;47.978;7.662;2022-09-03T21:10:29;3.10;;;2.10;;
6590;SDS011;3331;47.978;7.662;2022-09-03T21:12:59;3.20;;;2.27;;
6590;SDS011;3331;47.978;7.662;2022-09-03T21:15:27;4.93;;;2.00;;
6590;SDS011;3331;47.978;7.662;2022-09-03T21:18:03;2.67;;;2.07;;
6590;SDS011;3331;47.978;7.662;2022-09-03T21:20:32;2.80;;;2.33;;
6590;SDS011;3331;47.978;7.662;2022-09-03T21:23:06;2.33;;;2.13;;
6590;SDS011;3331;47.978;7.662;2022-09-03T21:25:37;3.70;;;2.10;;
6590;SDS011;3331;47.978;7.662;2022-09-03T21:28:05;5.40;;;1.90;;
6590;SDS011;3331;47.978;7.662;2022-09-03T21:30:34;4.17;;;1.80;;
6590;SDS011;3331;47.978;7.662;2022-09-03T21:33:07;2.33;;;1.70;;
6590;SDS011;3331;47.978;7.662;2022-09-03T21:35:36;2.40;;;2.10;;
6590;SDS011;3331;47.978;7.662;2022-09-03T21:38:04;3.67;;;1.87;;
6590;SDS011;3331;47.978;7.662;2022-09-03T21:40:31;3.73;;;1.90;;
6590;SDS011;3331;47.978;7.662;2022-09-03T21:43:01;2.00;;;1.67;;
6590;SDS011;3331;47.978;7.662;2022-09-03T21:45:30;2.03;;;1.40;;
6590;SDS011;3331;47.978;7.662;2022-09-03T21:48:02;3.00;;;2.00;;
6590;SDS011;3331;47.978;7.662;2022-09-03T21:50:33;2.00;;;1.90;;
6590;SDS011;3331;47.978;7.662;2022-09-03T21:53:05;1.87;;;1.77;;
6590;SDS011;3331;47.978;7.662;2022-09-03T21:55:35;4.80;;;2.33;;
6590;SDS011;3331;47.978;7.662;2022-09-03T21:58:09;5.17;;;2.17;;
6590;SDS011;3331;47.978;7.662;2022-09-03T22:00:38;5.90;;;2.20;;
6590;SDS011;3331;47.978;7.662;2022-09-03T22:03:04;1.93;;;1.80;;
6590;SDS011;3331;47.978;7.662;2022-09-03T22:05:35;5.93;;;2.37;;
6590;SDS011;3331;47.978;7.662;2022-09-03T22:08:05;3.57;;;2.43;;
6590;SDS011;3331;47.978;7.662;2022-09-03T22:10:36;2.00;;;1.90;;
6590;SDS011;3331;47.978;7.662;2022-09-03T22:13:10;3.03;;;2.30;;
6590;SDS011;3331;47.978;7.662;2022-09-03T22:15:39;2.60;;;2.10;;
6590;SDS011;3331;47.978;7.662;2022-09-03T22:18:08;2.30;;;2.03;;
6590;SDS011;3331;47.978;7.662;2022-09-03T22:20:41;2.13;;;1.93;;
6590;SDS011;3331;47.978;7.662;2022-09-03T22:23:17;5.83;;;1.90;;
6590;SDS011;3331;47.978;7.662;2022-09-03T22:25:51;3.33;;;2.10;;
6590;SDS011;3331;47.978;7.662;2022-09-03T22:28:25;5.23;;;2.30;;
6590;SDS011;3331;47.978;7.662;2022-09-03T22:30:58;3.83;;;2.17;;
6590;SDS011;3331;47.978;7.662;2022-09-03T22:33:26;4.67;;;2.20;;
6590;SDS011;3331;47.978;7.662;2022-09-03T22:36:00;2.13;;;2.00;;
6590;SDS011;3331;47.978;7.662;2022-09-03T22:38:59;5.50;;;2.10;;
6590;SDS011;3331;47.978;7.662;2022-09-03T22:41:32;2.30;;;2.10;;
6590;SDS011;3331;47.978;7.662;2022-09-03T22:44:04;2.17;;;2.00;;
6590;SDS011;3331;47.978;7.662;2022-09-03T22:46:35;1.70;;;1.60;;
6590;SDS011;3331;47.978;7.662;2022-09-03T22:51:53;2.10;;;1.90;;
6590;SDS011;3331;47.978;7.662;2022-09-03T22:54:26;5.00;;;1.93;;
6590;SDS011;3331;47.978;7.662;2022-09-03T22:56:58;4.23;;;2.00;;
6590;SDS011;3331;47.978;7.662;2022-09-03T22:59:26;3.00;;;2.50;;
6590;SDS011;3331;47.978;7.662;2022-09-03T23:01:55;35.13;;;3.10;;
6590;SDS011;3331;47.978;7.662;2022-09-03T23:04:24;2.47;;;2.00;;
6590;SDS011;3331;47.978;7.662;2022-09-03T23:06:56;3.07;;;2.33;;
6590;SDS011;3331;47.978;7.662;2022-09-03T23:09:24;2.07;;;1.90;;
6590;SDS011;3331;47.978;7.662;2022-09-03T23:11:54;2.20;;;2.00;;
6590;SDS011;3331;47.978;7.662;2022-09-03T23:14:23;4.40;;;2.00;;
6590;SDS011;3331;47.978;7.662;2022-09-03T23:16:53;5.63;;;2.27;;
6590;SDS011;3331;47.978;7.662;2022-09-03T23:19:21;4.00;;;2.20;;
6590;SDS011;3331;47.978;7.662;2022-09-03T23:21:56;3.70;;;1.90;;
6590;SDS011;3331;47.978;7.662;2022-09-03T23:24:26;5.07;;;2.23;;
6590;SDS011;3331;47.978;7.662;2022-09-03T23:26:53;2.70;;;2.30;;
6590;SDS011;3331;47.978;7.662;2022-09-03T23:29:21;3.63;;;1.87;;